Time;durP1;ratioP1;P1;durP2;ratioP2;P2;SDS_P1;SDS_P2;PMS_P1;PMS_P2;Temp;Humidity;BMP_temperature;BMP_pressure;BME280_temperature;BME280_humidity;BME280_pressure;Samples;Min_cycle;Max_cycle;Signal;HPM_P1;HPM_P2
2022/02/06 00:02:25;;;;;;;3.63;1.43;;;;;;;1.85;74.56;96005.28;5033674;28;20186;-79
2022/02/06 00:04:51;;;;;;;6.97;1.73;;;;;;;1.92;74.39;95998.09;5034004;28;20191;-79
2022/02/06 00:07:16;;;;;;;4.10;1.07;;;;;;;1.85;74.22;95992.47;5033800;28;20656;-80
2022/02/06 00:09:44;;;;;;;5.70;1.20;;;;;;;1.91;74.02;95981.09;5017914;28;20284;-79
2022/02/06 00:12:10;;;;;;;4.47;1.10;;;;;;;1.90;73.64;95984.56;5033192;28;20257;-78
2022/02/06 00:14:35;;;;;;;2.80;1.30;;;;;;;1.87;73.95;95977.88;5035283;28;20234;-80
2022/02/06 00:17:01;;;;;;;5.17;1.13;;;;;;;1.92;73.31;95990.41;5034055;28;20182;-79
2022/02/06 00:19:26;;;;;;;7.63;1.50;;;;;;;1.92;73.19;95973.31;5017168;28;20206;-80
2022/02/06 00:21:51;;;;;;;4.80;1.20;;;;;;;1.94;72.42;95960.41;5028814;28;20182;-79
2022/02/06 00:24:25;;;;;;;5.83;1.50;;;;;;;1.98;72.68;95957.59;5035730;28;20169;-79
2022/02/06 00:27:03;;;;;;;9.50;1.77;;;;;;;2.03;72.38;95965.03;5044166;28;20175;-79
2022/02/06 00:29:51;;;;;;;3.63;1.50;;;;;;;2.03;72.78;95953.94;5037011;28;20711;-80
2022/02/06 00:32:42;;;;;;;8.17;2.17;;;;;;;1.98;72.98;95956.78;5037062;28;20257;-79
2022/02/06 00:40:33;;;;;;;6.20;1.33;;;;;;;2.10;72.39;95957.81;5037066;28;20274;-80
2022/02/06 00:42:58;;;;;;;5.20;1.63;;;;;;;2.05;72.32;95922.22;5021035;28;20240;-80
2022/02/06 00:45:24;;;;;;;7.90;1.30;;;;;;;2.06;72.48;95934.13;5037157;28;20648;-80
2022/02/06 00:47:49;;;;;;;5.37;1.60;;;;;;;2.17;71.78;95929.22;5019851;28;20238;-80
2022/02/06 00:50:14;;;;;;;3.50;1.20;;;;;;;2.15;71.91;95928.47;5036202;28;20226;-79
2022/02/06 00:52:49;;;;;;;7.33;1.33;;;;;;;2.11;72.00;95926.16;5037534;28;20288;-80
2022/02/06 00:55:15;;;;;;;4.17;1.63;;;;;;;2.07;71.61;95920.41;5021288;28;20174;-79
2022/02/06 00:57:40;;;;;;;4.93;1.27;;;;;;;2.08;71.67;95927.19;5020713;28;20179;-78
2022/02/06 01:00:06;;;;;;;4.27;1.20;;;;;;;2.11;71.95;95923.59;5020282;28;20667;-79
2022/02/06 01:02:31;;;;;;;3.80;1.40;;;;;;;2.08;72.18;95921.22;5019003;28;20179;-80
2022/02/06 01:04:56;;;;;;;6.73;1.30;;;;;;;2.06;71.47;95912.81;5019249;28;20520;-77
2022/02/06 01:07:21;;;;;;;3.53;1.23;;;;;;;2.10;71.65;95916.84;5019349;28;20244;-78
2022/02/06 01:09:47;;;;;;;5.80;1.30;;;;;;;2.14;71.00;95919.16;5037036;28;20213;-77
2022/02/06 01:12:18;;;;;;;3.90;1.20;;;;;;;2.20;70.59;95907.72;5018793;28;20183;-77
2022/02/06 01:17:24;;;;;;;4.90;1.03;;;;;;;2.16;70.73;95901.13;5036166;28;20179;-79
2022/02/06 01:20:00;;;;;;;5.00;1.20;;;;;;;2.14;71.05;95906.34;5037419;28;20197;-78
2022/02/06 01:22:28;;;;;;;3.80;1.13;;;;;;;2.18;71.20;95896.72;5033952;28;20179;-78
2022/02/06 01:25:08;;;;;;;4.10;1.37;;;;;;;2.14;70.85;95905.50;5032465;28;20263;-77
2022/02/06 01:27:58;;;;;;;6.13;1.30;;;;;;;2.12;70.80;95904.75;5025450;28;20276;-78
2022/02/06 01:30:31;;;;;;;5.70;1.40;;;;;;;2.17;71.37;95905.34;5035418;28;20210;-78
2022/02/06 01:33:02;;;;;;;3.87;1.10;;;;;;;2.15;71.81;95902.88;5035267;28;20201;-78
2022/02/06 01:35:47;;;;;;;6.27;1.47;;;;;;;2.15;71.30;95902.88;5020218;28;20183;-78
2022/02/06 01:38:19;;;;;;;2.97;1.07;;;;;;;2.17;70.97;95902.78;5036470;28;20175;-78
2022/02/06 01:40:58;;;;;;;2.67;0.90;;;;;;;2.19;71.74;95898.38;5035942;28;20210;-78
2022/02/06 01:43:31;;;;;;;5.87;2.17;;;;;;;2.24;71.73;95894.66;5035015;28;20660;-78
2022/02/06 01:46:27;;;;;;;3.57;1.20;;;;;;;2.24;71.75;95896.38;5020069;28;20221;-79
2022/02/06 02:10:38;;;;;;;2.50;1.03;;;;;;;2.33;72.70;95871.97;5035343;28;20207;-79
2022/02/06 02:19:12;;;;;;;3.50;1.27;;;;;;;2.36;72.38;95849.53;5035567;28;20197;-78
2022/02/06 02:21:14;;;;;;;3.50;1.07;;;;;;;2.36;72.79;95849.53;5030414;28;20583;-79
2022/02/06 02:24:27;;;;;;;7.30;1.40;;;;;;;2.40;72.23;95838.19;5035284;28;20178;-78
2022/02/06 02:46:10;;;;;;;6.77;1.37;;;;;;;2.38;71.71;95816.13;4959575;28;20177;-78
2022/02/06 02:48:37;;;;;;;1.50;0.80;;;;;;;2.35;72.12;95814.56;4959697;28;20208;-78
2022/02/06 02:51:06;;;;;;;2.73;1.33;;;;;;;2.45;71.71;95802.84;4942612;28;20225;-78
2022/02/06 02:53:47;;;;;;;3.57;1.17;;;;;;;2.40;71.85;95798.94;4958581;28;20176;-78
2022/02/06 02:56:29;;;;;;;4.07;1.43;;;;;;;2.39;72.18;95798.09;4968761;28;20188;-78
2022/02/06 02:59:16;;;;;;;7.27;1.10;;;;;;;2.37;72.03;95788.84;4983986;28;20173;-78
2022/02/06 03:01:56;;;;;;;6.87;1.40;;;;;;;2.40;71.70;95778.44;4968445;28;20192;-78
2022/02/06 03:04:21;;;;;;;4.20;1.40;;;;;;;2.34;71.97;95782.16;4939902;28;20222;-78
2022/02/06 03:06:47;;;;;;;4.53;1.30;;;;;;;2.30;71.50;95765.34;4941445;29;20692;-77
2022/02/06 03:09:12;;;;;;;4.87;1.53;;;;;;;2.35;71.58;95773.56;5004287;28;20741;-79
2022/02/06 03:11:38;;;;;;;4.23;1.20;;;;;;;2.36;71.85;95759.00;5015818;28;20175;-79
2022/02/06 03:14:15;;;;;;;3.57;0.97;;;;;;;2.32;71.84;95760.13;5016580;28;20222;-78
2022/02/06 03:16:48;;;;;;;3.37;1.60;;;;;;;2.37;71.30;95758.09;5018758;28;20188;-78
2022/02/06 03:19:19;;;;;;;5.23;1.20;;;;;;;2.40;71.72;95743.38;5033070;28;20178;-78
2022/02/06 03:21:45;;;;;;;3.43;1.20;;;;;;;2.43;70.84;95757.72;5031468;28;20182;-78
2022/02/06 03:26:43;;;;;;;7.43;1.53;;;;;;;2.38;71.67;95734.91;5033917;28;20270;-78
2022/02/06 03:29:09;;;;;;;3.97;1.10;;;;;;;2.50;71.36;95744.44;5033450;28;20213;-78
2022/02/06 03:31:34;;;;;;;6.20;1.30;;;;;;;2.45;71.46;95746.44;5015656;28;20564;-80
2022/02/06 03:33:59;;;;;;;7.50;1.43;;;;;;;2.44;71.27;95749.13;5043835;28;20189;-77
2022/02/06 03:36:25;;;;;;;3.53;1.40;;;;;;;2.47;71.38;95752.34;5049961;28;20249;-77
2022/02/06 03:38:52;;;;;;;4.57;1.83;;;;;;;2.43;71.75;95740.59;5023695;28;20180;-77
2022/02/06 03:41:18;;;;;;;3.67;1.10;;;;;;;2.40;71.71;95753.63;5015810;28;20209;-78
2022/02/06 03:46:14;;;;;;;4.47;1.20;;;;;;;2.44;71.65;95742.25;5033307;28;20189;-78
2022/02/06 03:51:30;;;;;;;9.67;1.87;;;;;;;2.57;72.00;95744.06;5032005;28;20217;-78
2022/02/06 03:53:55;;;;;;;4.30;1.20;;;;;;;2.44;71.73;95742.25;5032887;28;20190;-79
2022/02/06 03:56:23;;;;;;;3.57;1.47;;;;;;;2.53;71.91;95739.13;5016322;28;20178;-78
2022/02/06 03:58:49;;;;;;;7.07;1.47;;;;;;;2.48;72.03;95738.59;5033098;28;20651;-79
2022/02/06 04:01:14;;;;;;;6.20;1.40;;;;;;;2.46;72.19;95744.72;5032440;28;20206;-79
2022/02/06 04:03:40;;;;;;;3.23;1.13;;;;;;;2.47;71.96;95742.06;5018711;28;20179;-79
2022/02/06 04:06:05;;;;;;;7.63;1.17;;;;;;;2.44;72.34;95723.47;5020657;28;20194;-78
2022/02/06 04:08:33;;;;;;;4.53;1.40;;;;;;;2.38;72.70;95714.41;5020758;28;20253;-78
2022/02/06 04:10:59;;;;;;;2.60;1.17;;;;;;;2.36;72.89;95707.75;5037414;28;20631;-78
2022/02/06 04:13:26;;;;;;;2.20;1.00;;;;;;;2.40;72.85;95704.91;5036569;28;20183;-79
2022/02/06 04:15:59;;;;;;;5.37;1.37;;;;;;;2.42;72.20;95700.50;5020774;28;20193;-78
2022/02/06 04:18:35;;;;;;;3.83;1.20;;;;;;;2.45;72.62;95709.75;5037325;28;20278;-79
2022/02/06 04:21:01;;;;;;;4.83;1.30;;;;;;;2.47;72.28;95700.22;5035883;28;20241;-81
2022/02/06 04:23:26;;;;;;;2.47;1.10;;;;;;;2.43;72.39;95699.59;5036933;28;20185;-78
2022/02/06 04:25:52;;;;;;;7.70;1.40;;;;;;;2.43;72.83;95689.34;5020576;28;20241;-80
2022/02/06 04:28:17;;;;;;;4.50;1.40;;;;;;;2.43;73.27;95691.91;5021059;28;20189;-79
2022/02/06 04:30:43;;;;;;;6.23;1.50;;;;;;;2.46;72.80;95694.28;5037305;28;20609;-79
2022/02/06 04:33:08;;;;;;;4.80;1.37;;;;;;;2.45;73.29;95691.81;5036996;28;20182;-79
2022/02/06 04:35:37;;;;;;;4.10;1.33;;;;;;;2.47;73.49;95703.63;5020915;28;20179;-80
2022/02/06 04:43:38;;;;;;;7.50;1.60;;;;;;;2.48;73.45;95677.06;5037026;28;20640;-79
2022/02/06 04:49:25;;;;;;;6.13;1.47;;;;;;;2.50;73.53;95666.72;5018260;28;20648;-80
2022/02/06 05:13:58;;;;;;;5.50;2.03;;;;;;;2.59;73.83;95624.31;5036627;28;20583;-79
2022/02/06 05:24:34;;;;;;;5.00;1.37;;;;;;;2.54;73.27;95607.47;5037591;28;20175;-78
2022/02/06 05:27:15;;;;;;;9.83;1.93;;;;;;;2.57;73.35;95621.03;5037136;28;20190;-79
2022/02/06 05:34:50;;;;;;;3.93;1.47;;;;;;;2.53;73.65;95628.88;5036848;28;20189;-78
2022/02/06 05:37:15;;;;;;;5.77;1.37;;;;;;;2.51;73.47;95651.25;5037902;28;20555;-79
2022/02/06 05:39:40;;;;;;;3.60;1.67;;;;;;;2.60;73.41;95644.72;5036713;28;20190;-79
2022/02/06 05:42:06;;;;;;;3.27;1.13;;;;;;;2.64;73.00;95646.16;5036329;28;20433;-79
2022/02/06 05:44:31;;;;;;;5.70;1.40;;;;;;;2.68;72.71;95628.84;5036383;28;20187;-79
2022/02/06 05:46:57;;;;;;;4.03;1.93;;;;;;;2.70;72.93;95627.00;5037362;28;20178;-79
2022/02/06 05:49:22;;;;;;;6.67;2.80;;;;;;;2.74;72.88;95643.81;5035950;28;20207;-78
2022/02/06 05:51:48;;;;;;;7.33;1.50;;;;;;;2.74;72.44;95654.06;5019372;28;20193;-78
2022/02/06 05:54:14;;;;;;;3.60;1.17;;;;;;;2.79;72.51;95641.81;5035763;28;20356;-79
2022/02/06 05:56:40;;;;;;;6.27;1.57;;;;;;;2.78;72.08;95635.03;5020641;28;20188;-78
2022/02/06 05:59:05;;;;;;;3.30;1.17;;;;;;;2.82;71.94;95644.16;5036702;28;20257;-78
2022/02/06 06:01:30;;;;;;;3.90;2.10;;;;;;;2.88;71.78;95628.38;5038375;28;20297;-79
2022/02/06 06:03:56;;;;;;;5.87;3.30;;;;;;;2.83;71.98;95630.44;5042908;28;20198;-79
2022/02/06 06:06:21;;;;;;;6.57;2.13;;;;;;;2.83;72.09;95626.13;5019199;28;20189;-79
2022/02/06 06:08:47;;;;;;;2.97;1.50;;;;;;;2.78;72.48;95629.91;5034769;28;20182;-79
2022/02/06 06:11:12;;;;;;;4.67;1.43;;;;;;;2.81;72.70;95627.13;5017616;28;20668;-79
2022/02/06 06:13:37;;;;;;;6.53;2.30;;;;;;;2.78;72.35;95640.97;5035279;28;20256;-79
2022/02/06 06:16:04;;;;;;;4.80;1.60;;;;;;;2.75;72.75;95638.63;5035630;28;20678;-79
2022/02/06 06:18:30;;;;;;;4.57;1.90;;;;;;;2.81;73.17;95650.22;5018624;28;20182;-79
2022/02/06 06:20:55;;;;;;;6.43;1.77;;;;;;;2.83;72.96;95627.88;5017704;28;20579;-79
2022/02/06 06:23:23;;;;;;;3.77;1.30;;;;;;;2.84;73.28;95625.22;5034483;28;20265;-80
2022/02/06 06:25:50;;;;;;;8.13;1.60;;;;;;;2.82;72.98;95621.91;5018063;28;20190;-78
2022/02/06 06:28:15;;;;;;;5.43;1.50;;;;;;;2.80;72.87;95613.47;5035196;28;20174;-79
2022/02/06 06:30:41;;;;;;;6.10;2.27;;;;;;;2.78;73.42;95606.81;5035552;28;20222;-79
2022/02/06 06:33:06;;;;;;;2.87;1.10;;;;;;;2.76;73.45;95608.66;5034706;28;20182;-79
2022/02/06 06:35:32;;;;;;;8.27;2.20;;;;;;;2.77;73.70;95611.13;5018518;28;20625;-79
2022/02/06 06:37:59;;;;;;;3.20;1.20;;;;;;;2.77;73.53;95618.00;5035422;28;20182;-79
2022/02/06 06:40:25;;;;;;;6.53;1.73;;;;;;;2.73;73.46;95612.22;5035648;28;20186;-79
2022/02/06 06:42:51;;;;;;;8.30;2.60;;;;;;;2.83;73.03;95591.97;5035060;28;20221;-78
2022/02/06 06:45:16;;;;;;;3.00;1.63;;;;;;;2.80;73.39;95597.28;5027658;28;20179;-79
2022/02/06 06:47:48;;;;;;;7.43;1.60;;;;;;;2.80;73.26;95598.09;5053439;28;20186;-79
2022/02/06 06:50:13;;;;;;;4.77;1.77;;;;;;;2.81;73.59;95599.75;5030670;28;20230;-79
2022/02/06 06:52:39;;;;;;;5.53;1.77;;;;;;;2.81;73.09;95593.78;5034128;28;20185;-79
2022/02/06 06:55:05;;;;;;;5.97;1.73;;;;;;;2.84;73.18;95594.44;5017757;28;20186;-79
2022/02/06 06:57:39;;;;;;;6.97;1.70;;;;;;;2.86;73.59;95593.50;5034226;28;20180;-79
2022/02/06 07:02:31;;;;;;;9.07;2.33;;;;;;;2.92;73.38;95599.06;5031903;28;20202;-80
2022/02/06 07:04:58;;;;;;;3.63;1.50;;;;;;;2.87;73.52;95593.41;5016380;28;20615;-80
2022/02/06 07:07:27;;;;;;;4.20;1.83;;;;;;;2.86;74.26;95596.88;5016111;28;20175;-81
2022/02/06 07:09:52;;;;;;;9.20;2.70;;;;;;;2.96;73.11;95589.41;5032339;28;20207;-80
2022/02/06 07:12:18;;;;;;;8.93;1.43;;;;;;;2.94;73.76;95569.00;5015651;28;20189;-81
2022/02/06 07:14:44;;;;;;;4.83;1.47;;;;;;;2.90;73.86;95562.41;5016275;28;20652;-80
2022/02/06 07:17:10;;;;;;;5.13;1.23;;;;;;;2.87;73.81;95572.06;5015835;28;20233;-80
2022/02/06 07:19:35;;;;;;;2.50;1.30;;;;;;;2.87;73.78;95559.25;5015927;28;20199;-81
2022/02/06 07:22:00;;;;;;;4.37;1.27;;;;;;;2.84;74.03;95561.09;5014842;28;20190;-80
2022/02/06 07:24:27;;;;;;;6.00;1.27;;;;;;;2.94;73.80;95552.78;5034142;28;20198;-81
2022/02/06 07:26:57;;;;;;;5.53;1.60;;;;;;;2.96;74.10;95553.50;5032395;28;20184;-80
2022/02/06 07:29:23;;;;;;;4.20;1.60;;;;;;;2.94;73.83;95563.03;5032000;28;20205;-81
2022/02/06 07:31:50;;;;;;;4.57;1.43;;;;;;;3.04;73.63;95546.94;5031358;28;20167;-80
2022/02/06 07:34:15;;;;;;;4.70;1.13;;;;;;;3.04;73.23;95546.94;5031941;28;20185;-81
2022/02/06 07:36:40;;;;;;;3.60;1.20;;;;;;;3.10;73.50;95533.72;5031761;28;20179;-81
2022/02/06 07:39:06;;;;;;;3.87;1.30;;;;;;;3.18;73.31;95542.63;5015101;28;20185;-80
2022/02/06 07:41:31;;;;;;;5.13;1.27;;;;;;;3.16;73.50;95527.34;5014361;28;20688;-81
2022/02/06 07:43:56;;;;;;;3.73;1.20;;;;;;;3.16;72.99;95536.78;5014994;28;20201;-81
2022/02/06 07:46:29;;;;;;;3.93;1.63;;;;;;;3.22;72.80;95537.19;5009046;28;20214;-81
2022/02/06 07:48:57;;;;;;;3.63;1.43;;;;;;;3.20;73.31;95517.69;5020549;28;20184;-81
2022/02/06 07:51:22;;;;;;;5.70;1.40;;;;;;;3.19;73.12;95514.31;5028224;28;20325;-80
2022/02/06 07:53:48;;;;;;;2.67;1.20;;;;;;;3.23;73.10;95517.47;5011434;28;20686;-80
2022/02/06 07:56:14;;;;;;;4.93;1.17;;;;;;;3.26;73.06;95502.69;5010826;28;20190;-81
2022/02/06 07:58:39;;;;;;;4.23;1.50;;;;;;;3.27;72.79;95498.38;5027053;28;20223;-81
2022/02/06 08:01:04;;;;;;;3.43;0.90;;;;;;;3.29;72.27;95484.53;5013146;28;20225;-80
2022/02/06 08:03:30;;;;;;;6.47;1.27;;;;;;;3.38;72.00;95485.66;5030262;28;20179;-80
2022/02/06 08:05:55;;;;;;;4.90;1.17;;;;;;;3.37;71.88;95468.59;5030850;28;20497;-80
2022/02/06 08:08:21;;;;;;;4.70;1.57;;;;;;;3.39;72.18;95489.84;5014003;28;20185;-81
2022/02/06 08:10:47;;;;;;;3.60;1.40;;;;;;;3.41;71.37;95493.13;5035875;28;20202;-80
2022/02/06 08:16:00;;;;;;;1.87;0.80;;;;;;;3.47;72.12;95468.78;5036777;28;20220;-81
2022/02/06 08:18:25;;;;;;;3.33;1.13;;;;;;;3.53;72.36;95474.28;5017908;28;20682;-81
2022/02/06 08:20:50;;;;;;;3.23;1.50;;;;;;;3.54;71.93;95470.84;5031430;28;20230;-80
2022/02/06 08:23:15;;;;;;;4.43;1.70;;;;;;;3.67;72.17;95463.91;5030700;28;20175;-80
2022/02/06 08:25:41;;;;;;;4.23;1.50;;;;;;;3.68;72.33;95460.41;5030858;28;20201;-81
2022/02/06 08:28:06;;;;;;;3.17;1.40;;;;;;;3.88;72.24;95455.59;5037476;28;20175;-80
2022/02/06 08:30:31;;;;;;;3.37;1.20;;;;;;;3.85;72.85;95448.13;5042045;28;20211;-80
2022/02/06 08:32:57;;;;;;;4.70;1.10;;;;;;;3.93;72.69;95433.78;5028785;28;20176;-80
2022/02/06 08:35:24;;;;;;;4.27;1.10;;;;;;;4.09;72.55;95443.78;5027757;28;20184;-80
2022/02/06 08:37:50;;;;;;;2.77;1.20;;;;;;;3.97;73.06;95442.09;5044531;28;20205;-79
2022/02/06 08:40:16;;;;;;;3.07;1.30;;;;;;;4.05;73.45;95441.53;5042045;28;20188;-80
2022/02/06 08:42:43;;;;;;;5.37;1.53;;;;;;;4.06;73.61;95438.03;5024879;28;20269;-80
2022/02/06 08:45:11;;;;;;;2.30;1.10;;;;;;;4.05;74.01;95452.63;5043167;28;20187;-80
2022/02/06 08:47:37;;;;;;;5.57;0.90;;;;;;;4.19;73.85;95452.47;5043718;28;20483;-80
2022/02/06 08:50:03;;;;;;;4.00;1.30;;;;;;;4.31;74.29;95452.50;5045023;28;20253;-79
2022/02/06 08:52:28;;;;;;;2.40;1.50;;;;;;;4.13;73.91;95455.47;5031857;28;20170;-82
2022/02/06 08:54:54;;;;;;;5.57;1.30;;;;;;;4.23;73.68;95423.03;5033309;28;20213;-81
2022/02/06 08:57:23;;;;;;;7.60;1.50;;;;;;;4.17;73.96;95446.63;5027188;28;20190;-83
2022/02/06 08:59:48;;;;;;;7.07;1.23;;;;;;;4.32;73.84;95451.56;5027458;28;20241;-81
2022/02/06 09:02:14;;;;;;;5.93;1.20;;;;;;;4.02;74.64;95445.16;5047871;28;20183;-81
2022/02/06 09:04:39;;;;;;;2.63;1.70;;;;;;;4.15;74.78;95429.66;5044713;28;20192;-82
2022/02/06 09:07:04;;;;;;;2.03;1.00;;;;;;;4.15;76.25;95443.38;5027796;28;20236;-81
2022/02/06 09:09:31;;;;;;;3.50;1.37;;;;;;;4.08;76.92;95443.91;5026379;28;20277;-79
2022/02/06 09:11:57;;;;;;;2.70;1.23;;;;;;;4.10;76.82;95435.16;5026895;28;20181;-80
2022/02/06 09:14:24;;;;;;;6.50;2.00;;;;;;;4.08;77.61;95449.06;5028129;28;20228;-80
2022/02/06 09:16:51;;;;;;;7.23;4.20;;;;;;;4.05;77.73;95439.78;5029287;28;20183;-79
2022/02/06 09:19:17;;;;;;;4.63;2.00;;;;;;;4.04;78.89;95434.78;5027366;28;20395;-79
2022/02/06 09:21:42;;;;;;;5.30;1.53;;;;;;;3.97;79.39;95419.78;5045105;28;20173;-81
2022/02/06 09:24:09;;;;;;;5.57;2.33;;;;;;;3.92;79.50;95411.59;5046362;28;20259;-79
2022/02/06 09:26:35;;;;;;;2.63;1.30;;;;;;;4.08;79.44;95418.22;5030720;28;20186;-80
2022/02/06 09:29:01;;;;;;;2.20;1.10;;;;;;;4.06;80.30;95430.31;5026952;28;20616;-80
2022/02/06 09:31:27;;;;;;;2.53;1.03;;;;;;;4.13;80.39;95411.78;5038402;28;20198;-79
2022/02/06 09:36:18;;;;;;;1.90;1.23;;;;;;;4.05;81.71;95387.59;5038113;28;20178;-80
2022/02/06 09:38:44;;;;;;;3.73;1.30;;;;;;;3.87;81.32;95400.00;5037725;28;20197;-80
2022/02/06 09:41:09;;;;;;;3.33;1.50;;;;;;;3.90;81.89;95395.50;5038282;28;20760;-80
2022/02/06 09:43:35;;;;;;;5.03;1.67;;;;;;;4.09;81.28;95384.69;5021439;28;20180;-80
2022/02/06 09:46:01;;;;;;;1.93;1.10;;;;;;;3.93;80.61;95379.03;5021385;28;20206;-80
2022/02/06 09:48:30;;;;;;;4.00;1.27;;;;;;;4.09;82.14;95359.00;5037733;28;20181;-79
2022/02/06 09:50:56;;;;;;;2.27;1.07;;;;;;;4.19;80.80;95375.38;5037176;28;20206;-80
2022/02/06 09:53:22;;;;;;;4.40;2.10;;;;;;;4.23;81.37;95358.78;5020869;28;20171;-79
2022/02/06 09:55:47;;;;;;;2.73;1.30;;;;;;;4.06;81.73;95363.53;5038938;28;20770;-80
2022/02/06 10:00:50;;;;;;;3.33;2.07;;;;;;;3.78;80.83;95362.16;5039992;28;20194;-81
2022/02/06 10:03:15;;;;;;;6.10;2.13;;;;;;;3.94;82.42;95350.66;5025803;28;20186;-80
2022/02/06 10:05:45;;;;;;;2.50;1.50;;;;;;;3.98;82.44;95341.81;5041861;28;20179;-80
2022/02/06 10:08:31;;;;;;;5.43;1.90;;;;;;;3.98;82.53;95346.13;5025540;28;20206;-80
2022/02/06 10:11:06;;;;;;;1.67;0.93;;;;;;;3.85;81.41;95332.53;5023062;28;20212;-80
2022/02/06 10:13:37;;;;;;;1.87;1.17;;;;;;;3.90;81.31;95336.41;5022819;28;20179;-80
2022/02/06 10:16:03;;;;;;;1.60;0.80;;;;;;;4.00;80.10;95330.59;5040195;28;20181;-80
2022/02/06 10:18:29;;;;;;;3.53;0.90;;;;;;;4.00;80.44;95333.16;5038774;28;20649;-80
2022/02/06 10:20:55;;;;;;;2.83;2.20;;;;;;;3.95;78.77;95330.91;5040493;28;20321;-79
2022/02/06 10:23:29;;;;;;;3.20;1.80;;;;;;;4.13;78.95;95319.28;5035344;28;20551;-80
2022/02/06 10:26:04;;;;;;;3.53;1.00;;;;;;;4.32;78.06;95313.56;5019770;28;20239;-80
2022/02/06 10:31:02;;;;;;;1.80;1.03;;;;;;;4.43;76.75;95302.50;5034912;28;20203;-80
2022/02/06 10:33:51;;;;;;;3.03;0.70;;;;;;;4.64;75.97;95300.03;5017826;28;20199;-80
2022/02/06 10:36:18;;;;;;;3.33;0.90;;;;;;;4.67;77.33;95297.22;5018340;28;20180;-79
2022/02/06 10:38:45;;;;;;;3.73;1.50;;;;;;;4.70;75.49;95277.25;5018748;28;20651;-79
2022/02/06 10:41:13;;;;;;;1.17;0.83;;;;;;;4.79;74.90;95286.81;5017366;28;20597;-82
2022/02/06 10:44:05;;;;;;;2.03;1.17;;;;;;;4.99;73.17;95256.97;5017737;28;20288;-81
2022/02/06 10:46:33;;;;;;;1.33;1.03;;;;;;;4.87;73.48;95260.50;5012069;28;20201;-80
2022/02/06 10:49:12;;;;;;;4.80;1.10;;;;;;;5.14;72.74;95243.84;5034903;28;20171;-79
2022/02/06 10:51:53;;;;;;;2.50;0.90;;;;;;;5.09;72.80;95239.03;5034850;28;20781;-80
2022/02/06 10:54:28;;;;;;;3.60;1.13;;;;;;;5.11;72.97;95248.25;5018396;28;20179;-80
2022/02/06 10:57:02;;;;;;;2.70;1.13;;;;;;;5.07;73.21;95235.78;5034608;28;20208;-78
2022/02/06 10:59:29;;;;;;;1.43;0.80;;;;;;;5.02;73.15;95227.59;5034657;28;20176;-79
2022/02/06 11:01:54;;;;;;;2.87;0.90;;;;;;;5.02;74.09;95228.41;5016976;28;20190;-80
2022/02/06 11:04:32;;;;;;;2.87;0.90;;;;;;;4.74;75.16;95219.47;5017173;28;20194;-80
2022/02/06 11:07:14;;;;;;;1.83;0.90;;;;;;;4.76;77.45;95216.78;5019369;28;20262;-80
2022/02/06 11:09:39;;;;;;;1.70;1.00;;;;;;;4.87;77.16;95211.63;5034184;28;20210;-80
2022/02/06 11:12:10;;;;;;;2.93;0.90;;;;;;;4.76;77.69;95215.00;5016801;28;20583;-80
2022/02/06 11:14:38;;;;;;;0.70;0.70;;;;;;;4.82;78.63;95214.53;5035382;28;20220;-79
2022/02/06 11:17:21;;;;;;;1.53;0.80;;;;;;;4.70;78.29;95205.22;5034045;28;20228;-79
2022/02/06 11:20:17;;;;;;;1.07;0.73;;;;;;;4.49;79.69;95186.31;5016711;28;20240;-79
2022/02/06 11:22:53;;;;;;;1.90;0.93;;;;;;;4.46;81.95;95197.66;5016236;28;20209;-80
2022/02/06 11:25:19;;;;;;;0.73;0.70;;;;;;;4.42;81.89;95188.56;5016219;28;20204;-80
2022/02/06 11:27:45;;;;;;;0.70;0.60;;;;;;;4.37;82.46;95197.56;5033341;28;20587;-79
2022/02/06 11:30:10;;;;;;;2.90;0.70;;;;;;;4.42;82.52;95172.31;5015044;28;20210;-79
2022/02/06 11:32:37;;;;;;;0.90;0.60;;;;;;;4.12;83.36;95181.44;5034383;28;20593;-78
2022/02/06 11:35:09;;;;;;;0.50;0.40;;;;;;;4.06;84.54;95168.22;5034022;28;20256;-78
2022/02/06 11:44:10;;;;;;;0.83;0.60;;;;;;;4.14;84.39;95155.63;4998581;28;20233;-77
2022/02/06 11:46:37;;;;;;;2.37;1.00;;;;;;;3.90;86.00;95138.59;4995830;28;20201;-79
2022/02/06 11:49:14;;;;;;;1.10;0.80;;;;;;;4.05;85.17;95148.63;4995967;28;20297;-79
2022/02/06 11:51:56;;;;;;;0.93;0.60;;;;;;;4.06;86.10;95135.66;4980004;28;20195;-79
2022/02/06 11:54:35;;;;;;;2.37;0.60;;;;;;;4.09;87.00;95126.91;4996181;28;20735;-78
2022/02/06 11:57:15;;;;;;;1.87;0.50;;;;;;;4.00;85.62;95122.47;5011466;28;20198;-79
2022/02/06 11:59:40;;;;;;;0.40;0.40;;;;;;;3.95;85.57;95099.69;4995611;28;20720;-79
2022/02/06 12:02:25;;;;;;;1.37;0.50;;;;;;;3.92;86.59;95105.88;4977610;28;20240;-77
2022/02/06 12:05:08;;;;;;;0.70;0.60;;;;;;;3.97;86.14;95087.53;4994605;28;20242;-78
2022/02/06 12:07:52;;;;;;;1.50;0.43;;;;;;;3.97;86.20;95087.53;5011527;28;20562;-78
2022/02/06 12:10:37;;;;;;;0.63;0.40;;;;;;;4.14;87.22;95081.91;5011339;28;20230;-78
2022/02/06 12:13:18;;;;;;;1.17;0.80;;;;;;;3.94;86.50;95060.34;4991556;28;20227;-78
2022/02/06 12:15:50;;;;;;;0.90;0.60;;;;;;;3.86;86.71;95049.84;5012957;28;20195;-80
2022/02/06 12:18:34;;;;;;;1.60;0.70;;;;;;;3.95;86.36;95053.44;5027919;28;20236;-80
2022/02/06 12:21:13;;;;;;;1.30;1.20;;;;;;;4.06;86.78;95043.16;5032794;28;20190;-79
2022/02/06 12:23:49;;;;;;;1.23;0.83;;;;;;;4.31;85.48;95023.22;5032760;28;20179;-79
2022/02/06 12:26:28;;;;;;;3.20;0.90;;;;;;;4.19;84.64;95025.03;5036618;28;20247;-79
2022/02/06 12:28:55;;;;;;;0.87;0.57;;;;;;;4.13;83.99;95028.06;5039671;28;20184;-80
2022/02/06 12:31:28;;;;;;;1.43;0.57;;;;;;;4.04;84.70;95027.03;5018717;28;20214;-81
2022/02/06 12:37:07;;;;;;;1.17;0.57;;;;;;;4.20;85.86;95000.94;5036327;28;20178;-80
2022/02/06 12:39:33;;;;;;;2.70;0.67;;;;;;;4.02;85.43;95007.56;5035616;28;20193;-78
2022/02/06 12:42:00;;;;;;;0.47;0.40;;;;;;;4.15;86.36;94985.91;5034969;28;20170;-79
2022/02/06 12:44:27;;;;;;;1.20;0.60;;;;;;;4.24;86.32;94992.88;5019463;28;20546;-79
2022/02/06 12:46:56;;;;;;;1.77;0.77;;;;;;;4.21;86.28;94969.97;5036380;28;20187;-79
2022/02/06 12:49:32;;;;;;;1.67;0.83;;;;;;;4.08;86.21;94981.38;5035562;28;20252;-79
2022/02/06 12:51:59;;;;;;;0.60;0.53;;;;;;;4.06;86.28;94970.38;5018263;28;20191;-86
2022/02/06 12:54:24;;;;;;;2.27;0.60;;;;;;;4.18;87.29;94956.56;5035331;28;20184;-79
2022/02/06 12:56:54;;;;;;;0.73;0.50;;;;;;;3.98;86.60;94942.75;5018466;28;20186;-80
2022/02/06 12:59:21;;;;;;;1.60;0.53;;;;;;;4.16;87.13;94935.34;5021445;28;20175;-81
2022/02/06 13:01:48;;;;;;;0.40;0.40;;;;;;;4.15;87.14;94921.66;5037380;28;20179;-81
2022/02/06 13:04:18;;;;;;;0.90;0.63;;;;;;;4.06;88.27;94939.56;5035003;28;20644;-80
2022/02/06 13:06:45;;;;;;;0.50;0.40;;;;;;;4.08;87.60;94924.84;5018330;28;20177;-80
2022/02/06 13:09:23;;;;;;;0.80;0.50;;;;;;;4.02;86.76;94938.19;5018307;28;20191;-80
2022/02/06 13:11:57;;;;;;;0.50;0.50;;;;;;;4.08;86.30;94912.81;5017458;28;20548;-79
2022/02/06 13:33:12;;;;;;;0.50;0.50;;;;;;;3.80;90.98;94859.44;5041280;28;20237;-80
2022/02/06 13:38:05;;;;;;;0.50;0.40;;;;;;;3.72;92.09;94859.25;5030911;28;20781;-80
2022/02/06 13:40:33;;;;;;;0.33;0.33;;;;;;;3.52;92.10;94853.94;5014427;28;20201;-80
2022/02/06 13:43:05;;;;;;;0.57;0.40;;;;;;;3.57;93.31;94849.28;5030489;28;20178;-79
2022/02/06 13:45:34;;;;;;;0.47;0.40;;;;;;;3.54;93.81;94853.84;5014665;28;20204;-80
2022/02/06 13:48:00;;;;;;;0.90;0.40;;;;;;;3.56;93.64;94816.84;5014837;28;20178;-80
2022/02/06 13:50:26;;;;;;;1.07;0.40;;;;;;;3.31;94.81;94841.06;5017488;28;20218;-80
2022/02/06 13:53:15;;;;;;;0.50;0.40;;;;;;;3.32;96.34;94827.28;5054054;28;20305;-79
2022/02/06 13:55:49;;;;;;;0.53;0.53;;;;;;;3.19;95.64;94802.75;5056225;28;20174;-79
2022/02/06 13:58:16;;;;;;;1.00;0.90;;;;;;;3.12;96.19;94818.59;5056354;28;20224;-79
2022/02/06 14:01:03;;;;;;;0.70;0.70;;;;;;;2.98;97.25;94800.91;5040140;28;20752;-82
2022/02/06 14:03:56;;;;;;;2.17;1.83;;;;;;;2.93;97.92;94802.22;5053697;28;20180;-81
2022/02/06 14:06:41;;;;;;;2.47;0.83;;;;;;;3.00;98.13;94783.63;5054024;28;20190;-79
2022/02/06 14:12:04;;;;;;;0.30;0.30;;;;;;;2.96;98.37;94799.41;5058038;28;20183;-80
2022/02/06 14:14:32;;;;;;;0.50;0.50;;;;;;;2.95;99.03;94793.44;5058025;28;20683;-79
2022/02/06 14:16:58;;;;;;;0.30;0.30;;;;;;;2.91;97.79;94784.34;5040307;28;20189;-79
2022/02/06 14:19:42;;;;;;;0.30;0.30;;;;;;;2.85;98.48;94761.78;5040683;28;20181;-81
2022/02/06 14:22:08;;;;;;;1.87;0.30;;;;;;;2.87;98.47;94770.16;5056895;28;20208;-78
2022/02/06 14:24:52;;;;;;;2.43;0.40;;;;;;;2.77;99.07;94775.19;5057743;28;20166;-80
2022/02/06 14:27:38;;;;;;;0.30;0.30;;;;;;;2.81;98.68;94762.94;5040364;28;20241;-78